Time;durP1;ratioP1;P1;durP2;ratioP2;P2;SDS_P1;SDS_P2;PMS_P1;PMS_P2;Temp;Humidity;BMP_temperature;BMP_pressure;BME280_temperature;BME280_humidity;BME280_pressure;Samples;Min_cycle;Max_cycle;Signal;HPM_P1;HPM_P2
2021/07/28 00:00:44;;;;;;;;;;;;;;;;;;5070142;28;19909;-89
2021/07/28 00:03:10;;;;;;;;;;;;;;;;;;5050224;28;19924;-89
2021/07/28 00:05:36;;;;;;;;;;;;;;;;;;5070352;28;19969;-90
2021/07/28 00:08:02;;;;;;;;;;;;;;;;;;5054760;28;20003;-90
2021/07/28 00:10:27;;;;;;;;;;;;;;;;;;5054551;28;19916;-90
2021/07/28 00:12:53;;;;;;;;;;;;;;;;;;5070944;28;19912;-90
2021/07/28 00:15:19;;;;;;;;;;;;;;;;;;5053898;28;20007;-89
2021/07/28 00:17:51;;;;;;;;;;;;;;;;;;5050410;28;20027;-91
2021/07/28 00:20:30;;;;;;;;;;;;;;;;;;5054772;28;19935;-90
2021/07/28 00:23:14;;;;;;;;;;;;;;;;;;5050418;28;19952;-90
2021/07/28 00:25:40;;;;;;;;;;;;;;;;;;5036757;28;19956;-90
2021/07/28 00:28:06;;;;;;;;;;;;;;;;;;5054040;28;19955;-91
2021/07/28 00:30:32;;;;;;;;;;;;;;;;;;5053781;28;20296;-90
2021/07/28 00:32:58;;;;;;;;;;;;;;;;;;5050160;28;19913;-90
2021/07/28 00:35:24;;;;;;;;;;;;;;;;;;5054255;28;19913;-91
2021/07/28 00:37:50;;;;;;;;;;;;;;;;;;5054304;28;19923;-91
2021/07/28 00:40:16;;;;;;;;;;;;;;;;;;5054096;28;20403;-91
2021/07/28 00:42:42;;;;;;;;;;;;;;;;;;5054384;28;19909;-91
2021/07/28 00:45:08;;;;;;;;;;;;;;;;;;5053659;28;19929;-91
2021/07/28 00:47:34;;;;;;;;;;;;;;;;;;5051438;28;19913;-91
2021/07/28 00:50:00;;;;;;;;;;;;;;;;;;5049964;28;19917;-90
2021/07/28 00:52:26;;;;;;;;;;;;;;;;;;5052810;28;19909;-91
2021/07/28 00:54:52;;;;;;;;;;;;;;;;;;5051846;28;19912;-91
2021/07/28 00:57:17;;;;;;;;;;;;;;;;;;5053614;28;19982;-91
2021/07/28 00:59:43;;;;;;;;;;;;;;;;;;5049396;28;19912;-91
2021/07/28 01:02:09;;;;;;;;;;;;;;;;;;5069675;28;20276;-90
2021/07/28 01:04:35;;;;;;;;;;;;;;;;;;5054088;28;19929;-91
2021/07/28 01:07:01;;;;;;;;;;;;;;;;;;5053837;28;19952;-90
2021/07/28 01:09:28;;;;;;;;;;;;;;;;;;5053590;28;19917;-90
2021/07/28 01:11:54;;;;;;;;;;;;;;;;;;5049507;28;19987;-91
2021/07/28 01:14:21;;;;;;;;;;;;;;;;;;5068782;28;19930;-90
2021/07/28 01:16:47;;;;;;;;;;;;;;;;;;5053738;28;19924;-91
2021/07/28 01:19:13;;;;;;;;;;;;;;;;;;5053460;28;20450;-90
2021/07/28 01:21:39;;;;;;;;;;;;;;;;;;5053976;28;19947;-90
2021/07/28 01:24:05;;;;;;;;;;;;;;;;;;5053549;28;19927;-90
2021/07/28 01:26:31;;;;;;;;;;;;;;;;;;5053402;28;19921;-90
2021/07/28 01:28:57;;;;;;;;;;;;;;;;;;5053504;28;20300;-90
2021/07/28 01:31:23;;;;;;;;;;;;;;;;;;5053353;28;19909;-90
2021/07/28 01:33:49;;;;;;;;;;;;;;;;;;5052629;28;19909;-90
2021/07/28 01:36:15;;;;;;;;;;;;;;;;;;5049519;28;19948;-90
2021/07/28 01:38:41;;;;;;;;;;;;;;;;;;5068570;28;19923;-91
2021/07/28 01:41:07;;;;;;;;;;;;;;;;;;5069362;28;19920;-90
2021/07/28 01:43:33;;;;;;;;;;;;;;;;;;5051809;28;19925;-91
2021/07/28 01:45:59;;;;;;;;;;;;;;;;;;5057728;28;19919;-91
2021/07/28 01:48:25;;;;;;;;;;;;;;;;;;5057442;28;19908;-89
2021/07/28 01:50:50;;;;;;;;;;;;;;;;;;5058619;28;19913;-89
2021/07/28 01:53:16;;;;;;;;;;;;;;;;;;5063996;28;19909;-91
2021/07/28 01:55:42;;;;;;;;;;;;;;;;;;5054990;28;19913;-91
2021/07/28 01:58:08;;;;;;;;;;;;;;;;;;5057318;28;19924;-91
2021/07/28 02:00:34;;;;;;;;;;;;;;;;;;5053075;28;20284;-91
2021/07/28 02:03:03;;;;;;;;;;;;;;;;;;5073095;28;19952;-91
2021/07/28 02:05:29;;;;;;;;;;;;;;;;;;5057321;28;19921;-91
2021/07/28 02:07:55;;;;;;;;;;;;;;;;;;5057363;28;19913;-91
2021/07/28 02:10:21;;;;;;;;;;;;;;;;;;5055811;28;20281;-90
2021/07/28 02:12:47;;;;;;;;;;;;;;;;;;5057549;28;19908;-91
2021/07/28 02:15:13;;;;;;;;;;;;;;;;;;5056927;28;19923;-91
2021/07/28 02:17:39;;;;;;;;;;;;;;;;;;5056956;28;20325;-90
2021/07/28 02:20:04;;;;;;;;;;;;;;;;;;5052801;28;19917;-90
2021/07/28 02:22:30;;;;;;;;;;;;;;;;;;5057074;28;19910;-91
2021/07/28 02:24:56;;;;;;;;;;;;;;;;;;5072600;28;19921;-91
2021/07/28 02:27:22;;;;;;;;;;;;;;;;;;5056167;28;20281;-90
2021/07/28 02:29:49;;;;;;;;;;;;;;;;;;5056672;28;19913;-91
2021/07/28 02:32:15;;;;;;;;;;;;;;;;;;5052855;28;19912;-91
2021/07/28 02:34:41;;;;;;;;;;;;;;;;;;5056909;28;19940;-91
2021/07/28 02:37:07;;;;;;;;;;;;;;;;;;5069073;28;19916;-91
2021/07/28 02:39:32;;;;;;;;;;;;;;;;;;5055668;28;20004;-91
2021/07/28 02:41:59;;;;;;;;;;;;;;;;;;5056096;28;19913;-90
2021/07/28 02:44:25;;;;;;;;;;;;;;;;;;5052382;28;19924;-91
2021/07/28 02:46:51;;;;;;;;;;;;;;;;;;5056761;28;19919;-91
2021/07/28 02:49:17;;;;;;;;;;;;;;;;;;5056909;28;20361;-92
2021/07/28 02:51:43;;;;;;;;;;;;;;;;;;5055234;28;19909;-91
2021/07/28 02:54:10;;;;;;;;;;;;;;;;;;5056227;28;20369;-90
2021/07/28 02:56:36;;;;;;;;;;;;;;;;;;5054998;28;19963;-91
2021/07/28 02:59:02;;;;;;;;;;;;;;;;;;5056360;28;19946;-91
2021/07/28 03:01:28;;;;;;;;;;;;;;;;;;5071966;28;20417;-91
2021/07/28 03:03:54;;;;;;;;;;;;;;;;;;5055692;28;19955;-91
2021/07/28 03:06:20;;;;;;;;;;;;;;;;;;5056636;28;19912;-91
2021/07/28 03:08:46;;;;;;;;;;;;;;;;;;5062711;28;19978;-91
2021/07/28 03:11:12;;;;;;;;;;;;;;;;;;5069360;28;19939;-90
2021/07/28 03:13:37;;;;;;;;;;;;;;;;;;5085478;28;19913;-91
2021/07/28 03:16:03;;;;;;;;;;;;;;;;;;5070294;28;19932;-90
2021/07/28 03:18:29;;;;;;;;;;;;;;;;;;5060897;28;19919;-91
2021/07/28 03:20:55;;;;;;;;;;;;;;;;;;5062184;28;19920;-90
2021/07/28 03:23:21;;;;;;;;;;;;;;;;;;5051684;28;19912;-90
2021/07/28 03:25:47;;;;;;;;;;;;;;;;;;5055486;28;19956;-91
2021/07/28 03:28:13;;;;;;;;;;;;;;;;;;5055181;28;19909;-91
2021/07/28 03:30:39;;;;;;;;;;;;;;;;;;5054656;28;19959;-92
2021/07/28 03:33:04;;;;;;;;;;;;;;;;;;5055757;28;19962;-92
2021/07/28 03:35:30;;;;;;;;;;;;;;;;;;5052853;28;19913;-91
2021/07/28 03:37:56;;;;;;;;;;;;;;;;;;5052887;28;19920;-92
2021/07/28 03:40:22;;;;;;;;;;;;;;;;;;5054918;28;20403;-92
2021/07/28 03:42:48;;;;;;;;;;;;;;;;;;5055607;28;20324;-91
2021/07/28 03:45:14;;;;;;;;;;;;;;;;;;5055447;28;19964;-91
2021/07/28 03:47:40;;;;;;;;;;;;;;;;;;5055328;28;19913;-91
2021/07/28 03:50:06;;;;;;;;;;;;;;;;;;5050034;28;20257;-92
2021/07/28 03:52:32;;;;;;;;;;;;;;;;;;5052962;28;20007;-91
2021/07/28 03:54:57;;;;;;;;;;;;;;;;;;5055093;28;20370;-91
2021/07/28 03:57:23;;;;;;;;;;;;;;;;;;5075291;28;19921;-91
2021/07/28 03:59:49;;;;;;;;;;;;;;;;;;5052833;28;19967;-91
2021/07/28 04:02:15;;;;;;;;;;;;;;;;;;5054666;28;19913;-91
2021/07/28 04:04:41;;;;;;;;;;;;;;;;;;5051630;28;20389;-91
2021/07/28 04:07:07;;;;;;;;;;;;;;;;;;5052783;28;19995;-91
2021/07/28 04:09:33;;;;;;;;;;;;;;;;;;5051698;28;19948;-91
2021/07/28 04:11:59;;;;;;;;;;;;;;;;;;5048921;28;19967;-91
2021/07/28 04:14:24;;;;;;;;;;;;;;;;;;5053201;28;19912;-90
2021/07/28 04:16:50;;;;;;;;;;;;;;;;;;5054065;28;19920;-91
2021/07/28 04:19:16;;;;;;;;;;;;;;;;;;5051250;28;20023;-88
2021/07/28 04:21:42;;;;;;;;;;;;;;;;;;5053879;28;20418;-91
2021/07/28 04:24:08;;;;;;;;;;;;;;;;;;5050787;28;19927;-89
2021/07/28 04:26:34;;;;;;;;;;;;;;;;;;5054456;28;19913;-89
2021/07/28 04:29:00;;;;;;;;;;;;;;;;;;5056371;28;19917;-89
2021/07/28 04:31:26;;;;;;;;;;;;;;;;;;5054915;28;20409;-89
2021/07/28 04:33:51;;;;;;;;;;;;;;;;;;5054482;28;19913;-89
2021/07/28 04:36:17;;;;;;;;;;;;;;;;;;5049359;28;19952;-89
2021/07/28 04:38:43;;;;;;;;;;;;;;;;;;5053854;28;20376;-89
2021/07/28 04:41:09;;;;;;;;;;;;;;;;;;5049796;28;19920;-89
2021/07/28 04:43:35;;;;;;;;;;;;;;;;;;5052630;28;19925;-89
2021/07/28 04:46:01;;;;;;;;;;;;;;;;;;5054554;28;19913;-89
2021/07/28 04:48:27;;;;;;;;;;;;;;;;;;5053713;28;19956;-89
2021/07/28 04:50:53;;;;;;;;;;;;;;;;;;5053243;28;19917;-89
2021/07/28 04:53:19;;;;;;;;;;;;;;;;;;5052106;28;19917;-89
2021/07/28 04:55:44;;;;;;;;;;;;;;;;;;5050614;28;20067;-89
2021/07/28 04:58:10;;;;;;;;;;;;;;;;;;5054157;28;19921;-89
2021/07/28 05:00:36;;;;;;;;;;;;;;;;;;5050993;28;19955;-89
2021/07/28 05:03:02;;;;;;;;;;;;;;;;;;5053320;28;20281;-89
2021/07/28 05:05:28;;;;;;;;;;;;;;;;;;5053040;28;20018;-89
2021/07/28 05:07:54;;;;;;;;;;;;;;;;;;5053743;28;20353;-89
2021/07/28 05:10:20;;;;;;;;;;;;;;;;;;5053508;28;19917;-89
2021/07/28 05:12:46;;;;;;;;;;;;;;;;;;5051968;28;19954;-89
2021/07/28 05:15:12;;;;;;;;;;;;;;;;;;5051249;28;19916;-89
2021/07/28 05:17:38;;;;;;;;;;;;;;;;;;5053437;28;20328;-89
2021/07/28 05:20:03;;;;;;;;;;;;;;;;;;5052492;28;20015;-89
2021/07/28 05:22:29;;;;;;;;;;;;;;;;;;5053359;28;19915;-88
2021/07/28 05:24:55;;;;;;;;;;;;;;;;;;5053633;28;19916;-89
2021/07/28 05:27:21;;;;;;;;;;;;;;;;;;5049184;28;20355;-89
2021/07/28 05:29:47;;;;;;;;;;;;;;;;;;5053216;28;19958;-89
2021/07/28 05:32:13;;;;;;;;;;;;;;;;;;5049319;28;19913;-88
2021/07/28 05:34:39;;;;;;;;;;;;;;;;;;5051113;28;19913;-88
2021/07/28 05:37:05;;;;;;;;;;;;;;;;;;5052209;28;19909;-88
2021/07/28 05:39:30;;;;;;;;;;;;;;;;;;5048951;28;19920;-88
2021/07/28 05:41:57;;;;;;;;;;;;;;;;;;5052613;28;20272;-89
2021/07/28 05:44:23;;;;;;;;;;;;;;;;;;5053026;28;19936;-89
2021/07/28 05:46:48;;;;;;;;;;;;;;;;;;5052863;28;19920;-88
2021/07/28 05:49:14;;;;;;;;;;;;;;;;;;5053111;28;19924;-88
2021/07/28 05:51:40;;;;;;;;;;;;;;;;;;5051723;28;20357;-88
2021/07/28 05:54:06;;;;;;;;;;;;;;;;;;5052789;28;19912;-88
2021/07/28 05:56:32;;;;;;;;;;;;;;;;;;5052815;28;19972;-89
2021/07/28 05:58:58;;;;;;;;;;;;;;;;;;5050290;28;19959;-88
2021/07/28 06:01:24;;;;;;;;;;;;;;;;;;5050587;28;19909;-89
2021/07/28 06:03:50;;;;;;;;;;;;;;;;;;5052307;28;20103;-89
2021/07/28 06:06:15;;;;;;;;;;;;;;;;;;5052955;28;19916;-89
2021/07/28 06:08:41;;;;;;;;;;;;;;;;;;5052757;28;19917;-89
2021/07/28 06:11:07;;;;;;;;;;;;;;;;;;5053094;28;19913;-89
2021/07/28 06:13:33;;;;;;;;;;;;;;;;;;5052461;28;20450;-89
2021/07/28 06:15:59;;;;;;;;;;;;;;;;;;5069074;28;20008;-89
2021/07/28 06:18:25;;;;;;;;;;;;;;;;;;5048163;28;19920;-89
2021/07/28 06:20:51;;;;;;;;;;;;;;;;;;5052992;28;19913;-89
2021/07/28 06:23:16;;;;;;;;;;;;;;;;;;5052802;28;19913;-89
2021/07/28 06:25:44;;;;;;;;;;;;;;;;;;5052807;28;19916;-89
2021/07/28 06:28:10;;;;;;;;;;;;;;;;;;5052003;28;19916;-89
2021/07/28 06:30:37;;;;;;;;;;;;;;;;;;5049734;28;19999;-89
2021/07/28 06:33:02;;;;;;;;;;;;;;;;;;5072006;28;19917;-89
2021/07/28 06:35:28;;;;;;;;;;;;;;;;;;5072874;28;20309;-89
2021/07/28 06:37:54;;;;;;;;;;;;;;;;;;5057070;28;19962;-89
2021/07/28 06:40:20;;;;;;;;;;;;;;;;;;5056846;28;20383;-89
2021/07/28 06:42:46;;;;;;;;;;;;;;;;;;5056446;28;19908;-89
2021/07/28 06:45:12;;;;;;;;;;;;;;;;;;5055955;28;20642;-89
2021/07/28 06:47:38;;;;;;;;;;;;;;;;;;5055887;28;19912;-89
2021/07/28 06:50:04;;;;;;;;;;;;;;;;;;5052446;28;20327;-90
2021/07/28 06:52:29;;;;;;;;;;;;;;;;;;5056171;28;20384;-89
2021/07/28 06:54:55;;;;;;;;;;;;;;;;;;5055453;28;19956;-88
2021/07/28 06:57:21;;;;;;;;;;;;;;;;;;5055475;28;19921;-89
2021/07/28 06:59:47;;;;;;;;;;;;;;;;;;5055779;28;19917;-88
2021/07/28 07:02:13;;;;;;;;;;;;;;;;;;5055460;28;20265;-88
2021/07/28 07:04:39;;;;;;;;;;;;;;;;;;5056996;28;19921;-88
2021/07/28 07:07:05;;;;;;;;;;;;;;;;;;5057427;28;19909;-88
2021/07/28 07:09:31;;;;;;;;;;;;;;;;;;5053757;28;20277;-88
2021/07/28 07:11:56;;;;;;;;;;;;;;;;;;5055733;28;19935;-88
2021/07/28 07:14:22;;;;;;;;;;;;;;;;;;5050735;28;19917;-88
2021/07/28 07:16:51;;;;;;;;;;;;;;;;;;5053714;28;20381;-88
2021/07/28 07:19:17;;;;;;;;;;;;;;;;;;5055425;28;20339;-88
2021/07/28 07:21:42;;;;;;;;;;;;;;;;;;5055591;28;20003;-88
2021/07/28 07:24:08;;;;;;;;;;;;;;;;;;5054007;28;19921;-87
2021/07/28 07:26:34;;;;;;;;;;;;;;;;;;5055324;28;19920;-88
2021/07/28 07:29:00;;;;;;;;;;;;;;;;;;5054245;28;20276;-88
2021/07/28 07:31:26;;;;;;;;;;;;;;;;;;5053964;28;19908;-88
2021/07/28 07:33:52;;;;;;;;;;;;;;;;;;5054529;28;19955;-88
2021/07/28 07:36:19;;;;;;;;;;;;;;;;;;5053861;28;20323;-89
2021/07/28 07:38:45;;;;;;;;;;;;;;;;;;5051243;28;19913;-89
2021/07/28 07:41:11;;;;;;;;;;;;;;;;;;5053789;28;20250;-88
2021/07/28 07:43:36;;;;;;;;;;;;;;;;;;5053291;28;19970;-88
2021/07/28 07:46:02;;;;;;;;;;;;;;;;;;5053370;28;19916;-88
2021/07/28 07:48:28;;;;;;;;;;;;;;;;;;5053532;28;19909;-87
2021/07/28 07:50:54;;;;;;;;;;;;;;;;;;5051068;28;20380;-87
2021/07/28 07:53:20;;;;;;;;;;;;;;;;;;5068962;28;20037;-88
2021/07/28 07:55:46;;;;;;;;;;;;;;;;;;5053509;28;19982;-87
2021/07/28 07:58:12;;;;;;;;;;;;;;;;;;5053767;28;19924;-88
2021/07/28 08:00:38;;;;;;;;;;;;;;;;;;5053157;28;19912;-88
2021/07/28 08:03:04;;;;;;;;;;;;;;;;;;5053283;28;19963;-88
2021/07/28 08:05:30;;;;;;;;;;;;;;;;;;5053385;28;20003;-87
2021/07/28 08:07:56;;;;;;;;;;;;;;;;;;5053249;28;20003;-87
2021/07/28 08:10:22;;;;;;;;;;;;;;;;;;5053394;28;20327;-88
2021/07/28 08:12:48;;;;;;;;;;;;;;;;;;5053758;28;19921;-88
2021/07/28 08:15:14;;;;;;;;;;;;;;;;;;5052601;28;19912;-87
2021/07/28 08:17:40;;;;;;;;;;;;;;;;;;5053154;28;20415;-87
2021/07/28 08:20:06;;;;;;;;;;;;;;;;;;5053107;28;19955;-88
2021/07/28 08:22:32;;;;;;;;;;;;;;;;;;5052544;28;20392;-88
2021/07/28 08:24:58;;;;;;;;;;;;;;;;;;5053664;28;19925;-87
2021/07/28 08:27:26;;;;;;;;;;;;;;;;;;5053017;28;19916;-88
2021/07/28 08:29:51;;;;;;;;;;;;;;;;;;5052047;28;19913;-88
2021/07/28 08:32:17;;;;;;;;;;;;;;;;;;5052572;28;20115;-88
2021/07/28 08:34:43;;;;;;;;;;;;;;;;;;5052843;28;19913;-88
2021/07/28 08:37:09;;;;;;;;;;;;;;;;;;5052238;28;19913;-88
2021/07/28 08:39:35;;;;;;;;;;;;;;;;;;5052376;28;19909;-87
2021/07/28 08:42:03;;;;;;;;;;;;;;;;;;5052372;28;20377;-87
2021/07/28 08:44:29;;;;;;;;;;;;;;;;;;5048405;28;19923;-88
2021/07/28 08:46:55;;;;;;;;;;;;;;;;;;5052461;28;19913;-88
2021/07/28 08:49:21;;;;;;;;;;;;;;;;;;5052831;28;19913;-88
2021/07/28 08:51:46;;;;;;;;;;;;;;;;;;5053035;28;19966;-87
2021/07/28 08:54:12;;;;;;;;;;;;;;;;;;5047075;28;19960;-88
2021/07/28 08:56:38;;;;;;;;;;;;;;;;;;5052334;28;19954;-87
2021/07/28 08:59:04;;;;;;;;;;;;;;;;;;5052260;28;19921;-87
2021/07/28 09:01:30;;;;;;;;;;;;;;;;;;5051603;28;19909;-88
2021/07/28 09:03:56;;;;;;;;;;;;;;;;;;5056072;28;19920;-87
2021/07/28 09:06:22;;;;;;;;;;;;;;;;;;5048262;28;19985;-86
2021/07/28 09:08:48;;;;;;;;;;;;;;;;;;5052514;28;19913;-86
2021/07/28 09:11:13;;;;;;;;;;;;;;;;;;5052859;28;20318;-87
2021/07/28 09:13:39;;;;;;;;;;;;;;;;;;5052529;28;20051;-87
2021/07/28 09:16:05;;;;;;;;;;;;;;;;;;5053092;28;19909;-86
2021/07/28 09:18:32;;;;;;;;;;;;;;;;;;5053209;28;19913;-87
2021/07/28 09:20:58;;;;;;;;;;;;;;;;;;5049412;28;19948;-87
2021/07/28 09:23:24;;;;;;;;;;;;;;;;;;5052241;28;19923;-85
2021/07/28 09:25:55;;;;;;;;;;;;;;;;;;5052594;28;19916;-87
2021/07/28 09:28:21;;;;;;;;;;;;;;;;;;5053570;28;20376;-85
2021/07/28 09:30:47;;;;;;;;;;;;;;;;;;5054450;28;20388;-86
2021/07/28 09:33:15;;;;;;;;;;;;;;;;;;5053347;28;20027;-86
2021/07/28 09:35:41;;;;;;;;;;;;;;;;;;5054470;28;19913;-87
2021/07/28 09:38:07;;;;;;;;;;;;;;;;;;5050347;28;19923;-87
2021/07/28 09:40:33;;;;;;;;;;;;;;;;;;5054790;28;19917;-86
2021/07/28 09:42:59;;;;;;;;;;;;;;;;;;5052855;28;20260;-86
2021/07/28 09:45:24;;;;;;;;;;;;;;;;;;5050439;28;19928;-86
2021/07/28 09:47:53;;;;;;;;;;;;;;;;;;5052566;28;19964;-87
2021/07/28 09:50:19;;;;;;;;;;;;;;;;;;5051386;28;20007;-87
2021/07/28 09:52:50;;;;;;;;;;;;;;;;;;5048737;28;19964;-86
2021/07/28 09:55:16;;;;;;;;;;;;;;;;;;5050881;28;19916;-87
2021/07/28 09:57:42;;;;;;;;;;;;;;;;;;5055983;28;19924;-87
2021/07/28 10:00:08;;;;;;;;;;;;;;;;;;5058390;28;19913;-86
2021/07/28 10:02:34;;;;;;;;;;;;;;;;;;5072630;28;19924;-87
2021/07/28 10:05:00;;;;;;;;;;;;;;;;;;5064335;28;19921;-87
2021/07/28 10:07:26;;;;;;;;;;;;;;;;;;5066953;28;19923;-86
2021/07/28 10:09:52;;;;;;;;;;;;;;;;;;5076087;28;19934;-87
2021/07/28 10:12:18;;;;;;;;;;;;;;;;;;5080286;28;19905;-86
2021/07/28 10:14:44;;;;;;;;;;;;;;;;;;5080202;28;19955;-87
2021/07/28 10:17:10;;;;;;;;;;;;;;;;;;5080690;28;19960;-86
2021/07/28 10:19:38;;;;;;;;;;;;;;;;;;5077583;28;20385;-87
2021/07/28 10:22:04;;;;;;;;;;;;;;;;;;5061069;28;19919;-87
2021/07/28 10:24:30;;;;;;;;;;;;;;;;;;5055617;28;19916;-87
2021/07/28 10:26:56;;;;;;;;;;;;;;;;;;5054783;28;20353;-87
2021/07/28 10:29:22;;;;;;;;;;;;;;;;;;5063482;28;19916;-87
2021/07/28 10:31:48;;;;;;;;;;;;;;;;;;5054441;28;20450;-87
2021/07/28 10:34:13;;;;;;;;;;;;;;;;;;5054054;28;19910;-87
2021/07/28 10:36:39;;;;;;;;;;;;;;;;;;5068271;28;19916;-86
2021/07/28 10:39:05;;;;;;;;;;;;;;;;;;5071796;28;19920;-86
2021/07/28 10:41:31;;;;;;;;;;;;;;;;;;5074948;28;19942;-87
2021/07/28 10:43:57;;;;;;;;;;;;;;;;;;5074099;28;20327;-87
2021/07/28 10:46:23;;;;;;;;;;;;;;;;;;5075169;28;19927;-86
2021/07/28 10:48:49;;;;;;;;;;;;;;;;;;5075581;28;19916;-86
2021/07/28 10:51:15;;;;;;;;;;;;;;;;;;5065740;28;19916;-87
2021/07/28 10:53:41;;;;;;;;;;;;;;;;;;5059821;28;19948;-87
2021/07/28 10:56:07;;;;;;;;;;;;;;;;;;5058942;28;19957;-87
2021/07/28 10:58:33;;;;;;;;;;;;;;;;;;5054762;28;19944;-87
2021/07/28 11:00:59;;;;;;;;;;;;;;;;;;5057640;28;19933;-87
2021/07/28 11:03:25;;;;;;;;;;;;;;;;;;5051348;28;19912;-87
2021/07/28 11:05:52;;;;;;;;;;;;;;;;;;5053238;28;19931;-87
2021/07/28 11:08:19;;;;;;;;;;;;;;;;;;5055846;28;19966;-87
2021/07/28 11:10:45;;;;;;;;;;;;;;;;;;5053807;28;19913;-87
2021/07/28 11:13:11;;;;;;;;;;;;;;;;;;5055837;28;20004;-87
2021/07/28 11:15:37;;;;;;;;;;;;;;;;;;5053318;28;19920;-87
2021/07/28 11:18:03;;;;;;;;;;;;;;;;;;5053864;28;19917;-87
2021/07/28 11:20:29;;;;;;;;;;;;;;;;;;5052955;28;19913;-87
2021/07/28 11:22:55;;;;;;;;;;;;;;;;;;5053289;28;19941;-87
2021/07/28 11:25:20;;;;;;;;;;;;;;;;;;5052175;28;19921;-87
2021/07/28 11:27:46;;;;;;;;;;;;;;;;;;5048150;28;20008;-87
2021/07/28 11:30:12;;;;;;;;;;;;;;;;;;5049811;28;20014;-87
2021/07/28 11:32:39;;;;;;;;;;;;;;;;;;5049194;28;20257;-87
2021/07/28 11:35:05;;;;;;;;;;;;;;;;;;5052965;28;20039;-87
2021/07/28 11:37:31;;;;;;;;;;;;;;;;;;5053369;28;19959;-87
2021/07/28 11:39:59;;;;;;;;;;;;;;;;;;5054155;28;20376;-87
2021/07/28 11:42:25;;;;;;;;;;;;;;;;;;5053398;28;20016;-88
2021/07/28 11:44:50;;;;;;;;;;;;;;;;;;5052974;28;20020;-87
2021/07/28 11:47:16;;;;;;;;;;;;;;;;;;5053865;28;19909;-86
2021/07/28 11:49:42;;;;;;;;;;;;;;;;;;5049360;28;19982;-87
2021/07/28 11:52:08;;;;;;;;;;;;;;;;;;5053499;28;19909;-87
2021/07/28 11:54:34;;;;;;;;;;;;;;;;;;5048901;28;20365;-87
2021/07/28 11:57:00;;;;;;;;;;;;;;;;;;5052687;28;19927;-87
2021/07/28 11:59:26;;;;;;;;;;;;;;;;;;5061778;28;19967;-87
2021/07/28 12:01:52;;;;;;;;;;;;;;;;;;5055164;28;20385;-87
2021/07/28 12:04:18;;;;;;;;;;;;;;;;;;5053690;28;19924;-87
2021/07/28 12:06:44;;;;;;;;;;;;;;;;;;5056229;28;19908;-87
2021/07/28 12:09:10;;;;;;;;;;;;;;;;;;5049338;28;20321;-87
2021/07/28 12:11:35;;;;;;;;;;;;;;;;;;5052537;28;19917;-88
2021/07/28 12:14:01;;;;;;;;;;;;;;;;;;5048474;28;19920;-86
2021/07/28 12:16:27;;;;;;;;;;;;;;;;;;5054404;28;20252;-85
2021/07/28 12:18:53;;;;;;;;;;;;;;;;;;5054832;28;19909;-89
2021/07/28 12:21:19;;;;;;;;;;;;;;;;;;5053764;28;19913;-86
2021/07/28 12:23:45;;;;;;;;;;;;;;;;;;5047987;28;19951;-86
2021/07/28 12:26:11;;;;;;;;;;;;;;;;;;5054874;28;19923;-88
2021/07/28 12:28:36;;;;;;;;;;;;;;;;;;5063218;28;20343;-88
2021/07/28 12:31:02;;;;;;;;;;;;;;;;;;5064934;28;20004;-88
2021/07/28 12:33:28;;;;;;;;;;;;;;;;;;5050663;28;19913;-88
2021/07/28 12:35:55;;;;;;;;;;;;;;;;;;5049161;28;19935;-88
2021/07/28 12:38:21;;;;;;;;;;;;;;;;;;5053373;28;19913;-88
2021/07/28 12:40:47;;;;;;;;;;;;;;;;;;5052837;28;19916;-88
2021/07/28 12:43:13;;;;;;;;;;;;;;;;;;5052808;28;19962;-88
2021/07/28 12:45:39;;;;;;;;;;;;;;;;;;5051190;28;19917;-87
2021/07/28 12:48:05;;;;;;;;;;;;;;;;;;5052386;28;19913;-88
2021/07/28 12:50:31;;;;;;;;;;;;;;;;;;5046538;28;20425;-86
2021/07/28 12:52:57;;;;;;;;;;;;;;;;;;5058876;28;19948;-87
2021/07/28 12:55:23;;;;;;;;;;;;;;;;;;5048017;28;20340;-88
2021/07/28 12:57:49;;;;;;;;;;;;;;;;;;5050112;28;19943;-88
2021/07/28 13:00:15;;;;;;;;;;;;;;;;;;5043232;28;19913;-88
2021/07/28 13:02:40;;;;;;;;;;;;;;;;;;5049239;28;19913;-88
2021/07/28 13:05:07;;;;;;;;;;;;;;;;;;5049088;28;20380;-87
2021/07/28 13:10:17;;;;;;;;;;;;;;;;;;5048568;28;20276;-88
2021/07/28 13:12:43;;;;;;;;;;;;;;;;;;5046065;28;19925;-87
2021/07/28 13:15:09;;;;;;;;;;;;;;;;;;5045240;28;20021;-88
2021/07/28 13:17:35;;;;;;;;;;;;;;;;;;5052673;28;20444;-88
2021/07/28 13:20:01;;;;;;;;;;;;;;;;;;5045809;28;19913;-88
2021/07/28 13:22:27;;;;;;;;;;;;;;;;;;5056385;28;20364;-89
2021/07/28 13:24:53;;;;;;;;;;;;;;;;;;5046571;28;19975;-88
2021/07/28 13:27:19;;;;;;;;;;;;;;;;;;5057624;28;19967;-88
2021/07/28 13:29:44;;;;;;;;;;;;;;;;;;5058162;28;19912;-88
2021/07/28 13:32:10;;;;;;;;;;;;;;;;;;5053057;28;19920;-88
2021/07/28 13:34:36;;;;;;;;;;;;;;;;;;5045878;28;19943;-88
2021/07/28 13:37:02;;;;;;;;;;;;;;;;;;5050284;28;19913;-88
2021/07/28 13:39:28;;;;;;;;;;;;;;;;;;5051246;28;19913;-88
2021/07/28 13:41:54;;;;;;;;;;;;;;;;;;5046810;28;19913;-88
2021/07/28 13:44:20;;;;;;;;;;;;;;;;;;5050945;28;19940;-87
2021/07/28 13:46:46;;;;;;;;;;;;;;;;;;5050880;28;19913;-86
2021/07/28 13:49:12;;;;;;;;;;;;;;;;;;5056513;28;19991;-88
2021/07/28 13:51:37;;;;;;;;;;;;;;;;;;5051577;28;20011;-88
2021/07/28 13:54:03;;;;;;;;;;;;;;;;;;5052462;28;19917;-86
2021/07/28 13:56:29;;;;;;;;;;;;;;;;;;5050514;28;19944;-87
2021/07/28 13:58:55;;;;;;;;;;;;;;;;;;5059527;28;19928;-88
2021/07/28 14:01:21;;;;;;;;;;;;;;;;;;5052640;28;19962;-88
2021/07/28 14:03:47;;;;;;;;;;;;;;;;;;5051268;28;19932;-88
2021/07/28 14:06:13;;;;;;;;;;;;;;;;;;5046384;28;19927;-88
2021/07/28 14:08:39;;;;;;;;;;;;;;;;;;5051396;28;20357;-87
2021/07/28 14:11:07;;;;;;;;;;;;;;;;;;5050944;28;19924;-88
2021/07/28 14:13:33;;;;;;;;;;;;;;;;;;5051347;28;19920;-88
2021/07/28 14:15:59;;;;;;;;;;;;;;;;;;5051023;28;19928;-87
2021/07/28 14:18:25;;;;;;;;;;;;;;;;;;5052432;28;20273;-88
2021/07/28 14:20:51;;;;;;;;;;;;;;;;;;5050798;28;19948;-88
2021/07/28 14:23:17;;;;;;;;;;;;;;;;;;5051052;28;19920;-87
2021/07/28 14:25:43;;;;;;;;;;;;;;;;;;5049117;28;19921;-88
2021/07/28 14:28:09;;;;;;;;;;;;;;;;;;5053244;28;19913;-88
2021/07/28 14:30:34;;;;;;;;;;;;;;;;;;5051545;28;19976;-88
2021/07/28 14:33:00;;;;;;;;;;;;;;;;;;5049634;28;20003;-88
2021/07/28 14:35:26;;;;;;;;;;;;;;;;;;5049202;28;20288;-88
2021/07/28 14:37:52;;;;;;;;;;;;;;;;;;5049160;28;19927;-89
2021/07/28 14:40:18;;;;;;;;;;;;;;;;;;5051233;28;20309;-88
2021/07/28 14:42:44;;;;;;;;;;;;;;;;;;5051427;28;19920;-89
2021/07/28 14:45:10;;;;;;;;;;;;;;;;;;5052770;28;19960;-92
2021/07/28 14:47:36;;;;;;;;;;;;;;;;;;5046846;28;19923;-88
2021/07/28 14:50:02;;;;;;;;;;;;;;;;;;5053126;28;19913;-88
2021/07/28 14:52:28;;;;;;;;;;;;;;;;;;5054935;28;19913;-89
2021/07/28 14:54:53;;;;;;;;;;;;;;;;;;5055998;28;19967;-87
2021/07/28 14:57:19;;;;;;;;;;;;;;;;;;5064045;28;20292;-87
2021/07/28 14:59:45;;;;;;;;;;;;;;;;;;5073311;28;20242;-87
2021/07/28 15:02:12;;;;;;;;;;;;;;;;;;5058979;28;20003;-88
2021/07/28 15:04:38;;;;;;;;;;;;;;;;;;5055931;28;19921;-88
2021/07/28 15:07:03;;;;;;;;;;;;;;;;;;5055072;28;19913;-88
2021/07/28 15:09:29;;;;;;;;;;;;;;;;;;5053511;28;20219;-88
2021/07/28 15:11:55;;;;;;;;;;;;;;;;;;5058398;28;19968;-88
2021/07/28 15:14:21;;;;;;;;;;;;;;;;;;5057271;28;20423;-87
2021/07/28 15:16:47;;;;;;;;;;;;;;;;;;5059544;28;19913;-89
2021/07/28 15:19:14;;;;;;;;;;;;;;;;;;5059692;28;19966;-88
2021/07/28 15:21:39;;;;;;;;;;;;;;;;;;5059386;28;19975;-88
2021/07/28 15:24:05;;;;;;;;;;;;;;;;;;5055283;28;20281;-88
2021/07/28 15:26:31;;;;;;;;;;;;;;;;;;5059447;28;19956;-88
2021/07/28 15:28:57;;;;;;;;;;;;;;;;;;5055863;28;19924;-89
2021/07/28 15:31:23;;;;;;;;;;;;;;;;;;5057159;28;19984;-88
2021/07/28 15:33:49;;;;;;;;;;;;;;;;;;5058246;28;20254;-89
2021/07/28 15:36:15;;;;;;;;;;;;;;;;;;5052098;28;19940;-88
2021/07/28 15:38:41;;;;;;;;;;;;;;;;;;5056993;28;19920;-87
2021/07/28 15:41:07;;;;;;;;;;;;;;;;;;5061877;28;19909;-87
2021/07/28 15:43:32;;;;;;;;;;;;;;;;;;5052215;28;19919;-88
2021/07/28 15:45:58;;;;;;;;;;;;;;;;;;5072162;28;20365;-88
2021/07/28 15:48:24;;;;;;;;;;;;;;;;;;5067122;28;19913;-88
2021/07/28 15:50:50;;;;;;;;;;;;;;;;;;5075502;28;20346;-89
2021/07/28 15:53:16;;;;;;;;;;;;;;;;;;5067376;28;19917;-88
2021/07/28 15:55:42;;;;;;;;;;;;;;;;;;5055983;28;19941;-90
2021/07/28 15:58:08;;;;;;;;;;;;;;;;;;5061212;28;19994;-92
2021/07/28 16:00:34;;;;;;;;;;;;;;;;;;5045481;28;19917;-89
2021/07/28 16:02:59;;;;;;;;;;;;;;;;;;5055581;28;19948;-91
2021/07/28 16:05:25;;;;;;;;;;;;;;;;;;5052744;28;19924;-89
2021/07/28 16:07:52;;;;;;;;;;;;;;;;;;5053919;28;20281;-90
2021/07/28 16:10:18;;;;;;;;;;;;;;;;;;5055478;28;19915;-89
2021/07/28 16:12:44;;;;;;;;;;;;;;;;;;5056929;28;19956;-90
2021/07/28 16:15:10;;;;;;;;;;;;;;;;;;5047783;28;19919;-90
2021/07/28 16:17:36;;;;;;;;;;;;;;;;;;5076995;28;19989;-90
2021/07/28 16:20:02;;;;;;;;;;;;;;;;;;5070452;28;19917;-91
2021/07/28 16:22:28;;;;;;;;;;;;;;;;;;5091839;28;19920;-90
2021/07/28 16:24:54;;;;;;;;;;;;;;;;;;5077018;28;19928;-90
2021/07/28 16:27:20;;;;;;;;;;;;;;;;;;5063420;28;19913;-91
2021/07/28 16:29:46;;;;;;;;;;;;;;;;;;5075844;28;19924;-88
2021/07/28 16:32:12;;;;;;;;;;;;;;;;;;5075217;28;19932;-89
2021/07/28 16:34:38;;;;;;;;;;;;;;;;;;5075230;28;19908;-90
2021/07/28 16:37:03;;;;;;;;;;;;;;;;;;5064031;28;20047;-88
2021/07/28 16:39:29;;;;;;;;;;;;;;;;;;5054135;28;19909;-88